SABE

Jorge Newbery Airpark Airport

Buenos Aires, Argentina
TAF SABE 202300Z 2100/2124 36010KT 6000 RADZ BR SCT008 BKN020 OVC050 TX22/2118Z TN20/2110Z BECMG 2101/2103 27005KT 6000 FEW008 SCT015 BKN060 BECMG 2107/2109 24010KT 9999 BKN008 OVC015 TEMPO 2109/2114 8000 DZ OVC006 BECMG 2114/2116 9999 NSW SCT008 BKN012 OVC100 BECMG 2120/2122 18010KT BKN020 BKN100
Issued Valid From Valid To
Apr-20 @ 23:00 UTC
(5 hours ago)
Apr-21 @ 00:00 UTC
(4 hours ago)
Apr-22 @ 00:00 UTC
(in 20 hours)
Expired Click to View Apr-21 @ 00:00 to Apr-21 @ 01:00
TAF SABE 202300Z 2100/2124 36010KT 6000 RADZ BR SCT008 BKN020 OVC050 TX22/2118Z TN20/2110Z
Wind Visibility Clouds Conditions
360° at 10 knots 6,003 meters
  • Scattered at 800' AGL
  • Broken at 2,000' AGL
  • Overcast at 5,000' AGL
  • Rain
  • Drizzle
  • Mist
Becoming Apr-21 @ 01:00 to Apr-21 @ 07:00
BECMG 2101/2103 27005KT 6000 FEW008 SCT015 BKN060
Wind Visibility Clouds Conditions
270° at 5 knots 6,003 meters
  • Few at 800' AGL
  • Scattered at 1,500' AGL
  • Broken at 6,000' AGL
  • Rain
  • Drizzle
  • Mist
Becoming Apr-21 @ 07:00 to Apr-21 @ 14:00
BECMG 2107/2109 24010KT 9999 BKN008 OVC015
Wind Visibility Clouds Conditions
240° at 10 knots 10,000+ meters
  • Broken at 800' AGL
  • Overcast at 1,500' AGL
  • Rain
  • Drizzle
  • Mist
Temporary Apr-21 @ 09:00 to Apr-21 @ 14:00
TEMPO 2109/2114 8000 DZ OVC006
Visibility Clouds Conditions
7,998 meters
  • Overcast at 600' AGL
  • Drizzle
Becoming Apr-21 @ 14:00 to Apr-21 @ 20:00
BECMG 2114/2116 9999 NSW SCT008 BKN012 OVC100
Wind Visibility Clouds Conditions
240° at 10 knots 10,000+ meters
  • Scattered at 800' AGL
  • Broken at 1,200' AGL
  • Overcast at 10,000' AGL
Becoming Apr-21 @ 20:00 to Apr-22 @ 00:00
BECMG 2120/2122 18010KT BKN020 BKN100
Wind Visibility Clouds Conditions
180° at 10 knots 10,000+ meters
  • Broken at 2,000' AGL
  • Broken at 10,000' AGL
TAF SABE 202300Z 2100/2124 36010KT 6000 RADZ BR SCT008 BKN020 OVC050 TX22/2118Z TN20/2110Z BECMG 2101/2103 27005KT 6000 FEW008 SCT015 BKN060 BECMG 2107/2109 24010KT 9999 BKN008 OVC015 TEMPO 2109/2114 8000 DZ OVC006 BECMG 2114/2116 9999 NSW SCT008 BKN012 OVC100 BECMG 2120/2122 18010KT BKN020 BKN100
Issued Apr-20 @ 23:00 UTC
(5 hours ago)
Valid From Apr-21 @ 00:00 UTC
(4 hours ago)
Valid To Apr-22 @ 00:00 UTC
(in 20 hours)
Apr-21 @ 00:00 - Apr-21 @ 01:00
Wind Visibility
360° at 10 knots 6,003 meters
Clouds
  • Scattered at 800' AGL
  • Broken at 2,000' AGL
  • Overcast at 5,000' AGL
Conditions
  • Rain
  • Drizzle
  • Mist
Becoming Apr-21 @ 01:00 - Apr-21 @ 07:00
Wind Visibility
270° at 5 knots 6,003 meters
Clouds
  • Few at 800' AGL
  • Scattered at 1,500' AGL
  • Broken at 6,000' AGL
Conditions
  • Rain
  • Drizzle
  • Mist
Becoming Apr-21 @ 07:00 - Apr-21 @ 14:00
Wind Visibility
240° at 10 knots 10,000+ meters
Clouds
  • Broken at 800' AGL
  • Overcast at 1,500' AGL
Conditions
  • Rain
  • Drizzle
  • Mist
Temporary Apr-21 @ 09:00 - Apr-21 @ 14:00
Clouds
  • Overcast at 600' AGL
Conditions
  • Drizzle
Becoming Apr-21 @ 14:00 - Apr-21 @ 20:00
Wind Visibility
240° at 10 knots 10,000+ meters
Clouds
  • Scattered at 800' AGL
  • Broken at 1,200' AGL
  • Overcast at 10,000' AGL
Conditions
Becoming Apr-21 @ 20:00 - Apr-22 @ 00:00
Wind Visibility
180° at 10 knots 10,000+ meters
Clouds
  • Broken at 2,000' AGL
  • Broken at 10,000' AGL
Conditions